Time;durP1;ratioP1;P1;durP2;ratioP2;P2;SDS_P1;SDS_P2;PMS_P1;PMS_P2;Temp;Humidity;BMP_temperature;BMP_pressure;BME280_temperature;BME280_humidity;BME280_pressure;Samples;Min_cycle;Max_cycle;Signal;HPM_P1;HPM_P2
2024/03/31 00:01:49;;;;;;;;;18.00;12.50;;;;;13.81;77.80;98681.88;6279192;20;2800365;-45
2024/03/31 00:04:17;;;;;;;;;21.50;20.00;;;;;13.20;81.74;98681.13;6278101;20;2835720;-46
2024/03/31 00:06:46;;;;;;;;;22.50;18.00;;;;;13.41;80.89;98676.53;6276383;20;2832010;-45
2024/03/31 00:09:12;;;;;;;;;17.50;15.50;;;;;12.66;85.73;98688.47;6275045;20;2819107;-45
2024/03/31 00:11:39;;;;;;;;;22.50;16.00;;;;;12.30;88.82;98674.50;6274547;20;2492065;-45
2024/03/31 00:14:05;;;;;;;;;23.50;17.00;;;;;12.35;88.63;98674.09;6277688;20;2846165;-47
2024/03/31 00:16:33;;;;;;;;;15.67;15.00;;;;;12.63;88.31;98672.59;6274390;20;3536858;-46
2024/03/31 00:19:00;;;;;;;;;20.00;14.00;;;;;12.66;86.57;98675.00;6306181;20;3554476;-45
2024/03/31 00:21:28;;;;;;;;;19.00;14.00;;;;;12.36;90.86;98679.34;6305510;20;3556644;-46
2024/03/31 00:23:55;;;;;;;;;18.00;14.00;;;;;12.40;90.39;98674.56;6275575;20;3539943;-45
2024/03/31 00:26:24;;;;;;;;;14.00;10.60;;;;;11.86;93.07;98655.72;6330663;20;2794165;-47
2024/03/31 00:28:52;;;;;;;;;12.00;11.00;;;;;12.15;92.48;98662.34;6272918;20;3520054;-44
2024/03/31 00:31:19;;;;;;;;;17.33;12.00;;;;;11.89;93.70;98664.53;6306277;20;3533716;-45
2024/03/31 00:33:49;;;;;;;;;9.00;8.50;;;;;12.08;93.16;98660.19;6306055;20;2748296;-45
2024/03/31 00:36:16;;;;;;;;;8.00;8.00;;;;;12.22;90.08;98652.78;6281456;20;2734658;-45
2024/03/31 00:38:42;;;;;;;;;11.50;9.00;;;;;12.69;86.68;98663.97;6273242;20;2778796;-45
2024/03/31 00:41:09;;;;;;;;;12.50;9.00;;;;;12.49;86.17;98663.00;6276230;20;2768066;-46
2024/03/31 00:43:35;;;;;;;;;13.00;10.00;;;;;11.83;90.83;98652.41;6275981;20;2788854;-47
2024/03/31 00:46:03;;;;;;;;;14.00;9.67;;;;;11.92;90.96;98648.97;6275527;20;2787784;-46
2024/03/31 00:48:31;;;;;;;;;12.00;12.00;;;;;12.38;87.62;98655.00;6303947;20;3510767;-46
2024/03/31 00:50:58;;;;;;;;;16.00;12.67;;;;;12.00;90.47;98646.50;6307108;20;2786868;-45
2024/03/31 00:53:27;;;;;;;;;14.33;11.33;;;;;12.23;90.70;98646.41;6305561;20;3518146;-47
2024/03/31 00:55:57;;;;;;;;;16.60;11.00;;;;;11.98;92.35;98643.09;6349049;20;1958636;-46
2024/03/31 00:58:25;;;;;;;;;18.00;13.67;;;;;12.45;90.30;98640.03;6304393;20;3541978;-46
2024/03/31 01:00:52;;;;;;;;;16.00;14.00;;;;;11.87;92.96;98643.13;6274923;20;3533665;-46
2024/03/31 01:03:30;;;;;;;;;21.00;17.67;;;;;12.01;92.34;98636.63;6274261;20;3567989;-45
2024/03/31 01:06:13;;;;;;;;;15.00;14.00;;;;;11.91;92.40;98631.16;6276274;20;3523311;-48
2024/03/31 01:08:41;;;;;;;;;20.00;16.00;;;;;12.33;90.76;98633.88;6304376;20;3566925;-45
2024/03/31 01:11:09;;;;;;;;;17.00;13.67;;;;;12.34;91.29;98638.25;6274101;20;3529415;-46
2024/03/31 01:13:37;;;;;;;;;20.00;14.67;;;;;11.94;92.27;98620.13;6305586;20;3548450;-47
2024/03/31 01:16:05;;;;;;;;;19.50;17.00;;;;;11.63;94.65;98635.25;6272302;20;2824692;-46
2024/03/31 01:18:34;;;;;;;;;14.67;12.67;;;;;12.10;92.47;98638.50;6271066;20;3535815;-46
2024/03/31 01:21:01;;;;;;;;;9.50;9.00;;;;;13.08;79.67;98635.38;6274717;20;2755576;-47
2024/03/31 01:24:00;;;;;;;;;8.00;6.00;;;;;13.84;71.97;98643.81;6277628;20;2746117;-46
2024/03/31 01:26:30;;;;;;;;;7.00;5.00;;;;;14.45;63.41;98634.53;6273587;20;2754832;-45
2024/03/31 01:28:56;;;;;;;;;5.00;3.00;;;;;14.78;61.25;98637.78;6276691;20;2741977;-48
2024/03/31 01:31:24;;;;;;;;;4.50;3.50;;;;;15.05;58.82;98639.66;6278591;20;2750285;-47
2024/03/31 01:33:51;;;;;;;;;6.00;4.00;;;;;15.21;57.45;98635.47;6278406;20;2756659;-46
2024/03/31 01:36:17;;;;;;;;;3.50;3.50;;;;;15.37;55.36;98649.19;6279619;20;2752868;-46
2024/03/31 01:38:44;;;;;;;;;3.50;3.50;;;;;15.56;53.98;98645.50;6277720;20;2742069;-47
2024/03/31 01:41:11;;;;;;;;;4.00;4.00;;;;;15.48;53.96;98643.59;6276800;20;2746130;-46
2024/03/31 01:43:39;;;;;;;;;3.00;3.00;;;;;15.65;52.69;98650.03;6278563;20;2743112;-47
2024/03/31 01:46:08;;;;;;;;;6.00;4.00;;;;;15.95;51.10;98646.13;6275832;20;2744144;-46
2024/03/31 01:48:35;;;;;;;;;3.00;2.00;;;;;15.95;50.90;98651.53;6274644;20;2748267;-46
2024/03/31 01:51:01;;;;;;;;;3.00;3.00;;;;;16.09;49.61;98652.88;6280573;20;2763948;-46
2024/03/31 01:53:28;;;;;;;;;4.00;2.00;;;;;16.16;49.25;98651.22;6274704;20;2756490;-47
2024/03/31 01:55:54;;;;;;;;;2.00;2.00;;;;;16.33;48.38;98659.53;6278955;20;2750329;-45
2024/03/31 01:58:21;;;;;;;;;4.00;1.00;;;;;16.20;48.72;98668.88;6276552;20;2741992;-47
2024/03/31 02:00:47;;;;;;;;;3.00;2.00;;;;;16.05;49.03;98677.72;6277278;20;2746089;-46
2024/03/31 02:03:14;;;;;;;;;3.00;2.00;;;;;16.25;47.98;98673.84;6279424;20;2746703;-47
2024/03/31 02:05:40;;;;;;;;;1.00;1.00;;;;;16.33;47.46;98673.91;6277643;20;2747204;-46
2024/03/31 02:08:07;;;;;;;;;2.50;2.50;;;;;16.23;47.62;98673.16;6272859;20;2754469;-46
2024/03/31 02:10:34;;;;;;;;;4.00;2.50;;;;;16.32;47.80;98669.47;6278709;20;2753433;-48
2024/03/31 02:13:00;;;;;;;;;2.00;2.00;;;;;16.32;46.62;98669.47;6277445;20;2746120;-48
2024/03/31 02:15:27;;;;;;;;;4.00;2.00;;;;;16.34;46.37;98675.59;6278295;20;2753424;-49
2024/03/31 02:17:53;;;;;;;;;2.50;2.50;;;;;16.28;46.09;98684.38;6278401;20;2756683;-47
2024/03/31 02:20:20;;;;;;;;;2.00;2.00;;;;;16.50;45.31;98671.34;6276911;20;2748315;-47
2024/03/31 02:22:46;;;;;;;;;6.00;3.00;;;;;16.37;45.62;98688.84;6277071;20;2754473;-45
2024/03/31 02:25:13;;;;;;;;;3.00;2.50;;;;;16.48;45.11;98676.91;6278125;20;2754454;-46
2024/03/31 02:27:39;;;;;;;;;2.00;2.00;;;;;16.45;45.33;98677.22;6277032;20;2744068;-54
2024/03/31 02:30:06;;;;;;;;;0.00;0.00;;;;;16.42;45.04;98680.25;6278460;20;2728429;-50
2024/03/31 02:32:33;;;;;;;;;3.50;2.00;;;;;16.32;45.06;98688.44;6280427;20;2744031;-51
2024/03/31 02:35:00;;;;;;;;;2.50;2.50;;;;;16.45;44.42;98683.47;6274758;20;2752407;-46
2024/03/31 02:37:26;;;;;;;;;2.00;2.00;;;;;16.48;43.96;98678.75;6275920;20;2741955;-46
2024/03/31 02:39:53;;;;;;;;;3.00;2.00;;;;;16.45;43.99;98683.47;6276223;20;2753476;-48
2024/03/31 02:42:19;;;;;;;;;1.50;1.50;;;;;16.32;44.34;98695.72;6276758;20;2734658;-46
2024/03/31 02:44:46;;;;;;;;;3.00;3.00;;;;;16.22;44.15;98690.41;6277112;20;2738858;-46
2024/03/31 02:47:12;;;;;;;;;2.00;2.00;;;;;16.25;43.60;98690.09;6274980;20;2753445;-49
2024/03/31 02:49:39;;;;;;;;;6.00;2.00;;;;;16.22;43.59;98688.53;6277914;20;2752484;-46
2024/03/31 02:52:06;;;;;;;;;5.50;4.00;;;;;16.09;43.88;98690.78;6276682;20;2739924;-48
2024/03/31 02:54:32;;;;;;;;;2.00;2.00;;;;;16.17;44.27;98696.28;6275212;20;2741973;-46
2024/03/31 02:56:59;;;;;;;;;2.00;2.00;;;;;16.11;43.85;98682.50;6276112;20;2735720;-46
2024/03/31 02:59:25;;;;;;;;;3.00;2.00;;;;;16.11;43.75;98687.91;6273942;20;2749308;-46
2024/03/31 03:01:52;;;;;;;;;2.00;2.00;;;;;15.91;44.44;98690.78;6278233;20;2737777;-47
2024/03/31 03:04:18;;;;;;;;;4.00;2.00;;;;;15.75;45.25;98687.88;6276141;20;2744126;-46
2024/03/31 03:06:45;;;;;;;;;6.50;2.50;;;;;15.92;44.70;98687.03;6276650;20;2751764;-48
2024/03/31 03:09:12;;;;;;;;;2.00;2.00;;;;;15.92;44.42;98691.63;6298063;20;1803955;-50
2024/03/31 03:11:39;;;;;;;;;5.00;2.00;;;;;15.88;44.03;98699.19;6312221;20;2746083;-50
2024/03/31 03:14:05;;;;;;;;;3.50;2.00;;;;;15.78;45.17;98693.00;6282050;20;2752453;-47
2024/03/31 03:16:32;;;;;;;;;2.50;2.50;;;;;15.63;45.65;98699.88;6280786;20;2746114;-46
2024/03/31 03:18:58;;;;;;;;;5.00;2.00;;;;;15.61;45.33;98701.88;6279276;20;2746075;-46
2024/03/31 03:21:25;;;;;;;;;2.00;2.00;;;;;15.72;46.17;98715.25;6281134;20;2742030;-46
2024/03/31 03:23:51;;;;;;;;;4.00;1.00;;;;;15.77;45.47;98718.34;6281210;20;2740911;-46
2024/03/31 03:26:18;;;;;;;;;3.00;2.00;;;;;15.64;46.14;98715.09;6280170;20;2742969;-46
2024/03/31 03:28:46;;;;;;;;;3.00;1.00;;;;;15.64;46.28;98717.81;6281035;20;2733650;-47
2024/03/31 03:31:13;;;;;;;;;2.00;2.00;;;;;15.48;47.04;98707.63;6280719;20;2731930;-47
2024/03/31 03:33:40;;;;;;;;;3.00;2.00;;;;;15.39;46.98;98711.25;6279771;20;2752369;-46
2024/03/31 03:36:07;;;;;;;;;4.00;2.00;;;;;15.45;47.16;98714.19;6281810;20;2748212;-48
2024/03/31 03:38:34;;;;;;;;;1.00;1.00;;;;;15.47;46.70;98722.19;6281252;20;2736786;-47
2024/03/31 03:41:01;;;;;;;;;2.00;1.00;;;;;15.44;46.91;98727.91;6281333;20;2722148;-49
2024/03/31 03:43:32;;;;;;;;;2.50;2.00;;;;;15.18;47.87;98728.56;6280775;20;2752347;-48
2024/03/31 03:46:04;;;;;;;;;2.00;2.00;;;;;15.12;47.00;98730.00;6284085;20;2722158;-46
2024/03/31 03:48:33;;;;;;;;;1.00;1.00;;;;;15.28;47.27;98733.94;6293363;20;1803496;-46
2024/03/31 03:51:04;;;;;;;;;2.00;2.00;;;;;15.30;47.07;98734.66;6313822;20;2732566;-46
2024/03/31 03:53:31;;;;;;;;;3.00;2.00;;;;;15.25;46.48;98737.78;6279886;20;2733621;-47
2024/03/31 03:55:57;;;;;;;;;3.00;2.00;;;;;15.17;45.88;98742.25;6279153;20;2753375;-47
2024/03/31 03:58:24;;;;;;;;;2.00;1.50;;;;;15.27;45.89;98743.91;6282081;20;2737803;-47
2024/03/31 04:00:50;;;;;;;;;2.00;2.00;;;;;15.18;46.35;98736.66;6280564;20;2742032;-47
2024/03/31 04:03:17;;;;;;;;;2.00;2.00;;;;;15.22;46.13;98743.50;6278665;20;2744003;-46
2024/03/31 04:05:56;;;;;;;;;2.00;2.00;;;;;15.17;46.26;98753.91;6280693;20;2741944;-49
2024/03/31 04:08:23;;;;;;;;;3.00;2.00;;;;;15.02;46.41;98761.59;6278071;20;2749241;-48
2024/03/31 04:10:49;;;;;;;;;2.50;2.00;;;;;15.08;46.04;98766.41;6279048;20;2750286;-46
2024/03/31 04:13:17;;;;;;;;;2.75;1.75;;;;;15.18;46.01;98768.25;6295870;20;1806632;-47
2024/03/31 04:15:43;;;;;;;;;3.00;3.00;;;;;15.20;46.39;98768.97;6310283;20;2753407;-48
2024/03/31 04:18:10;;;;;;;;;2.00;2.00;;;;;15.06;45.95;98768.44;6276206;20;2755507;-48
2024/03/31 04:20:41;;;;;;;;;5.00;2.00;;;;;15.05;46.25;98769.41;6282670;20;2741947;-46
2024/03/31 04:23:08;;;;;;;;;3.50;2.00;;;;;15.13;45.97;98769.53;6279140;20;2750265;-46
2024/03/31 04:25:35;;;;;;;;;4.00;2.00;;;;;15.12;46.48;98773.25;6281182;20;2746206;-46
2024/03/31 04:28:03;;;;;;;;;2.50;2.00;;;;;15.03;46.92;98778.69;6276684;20;2751317;-47
2024/03/31 04:30:29;;;;;;;;;6.00;2.00;;;;;14.93;46.85;98773.31;6282528;20;2755659;-47
2024/03/31 04:32:56;;;;;;;;;4.00;2.00;;;;;15.02;46.30;98783.22;6279078;20;2752443;-46
2024/03/31 04:35:23;;;;;;;;;2.50;1.50;;;;;14.86;47.30;98789.22;6294299;20;1804328;-47
2024/03/31 04:37:50;;;;;;;;;3.00;2.00;;;;;14.91;46.99;98786.09;6310785;20;2742630;-46
2024/03/31 04:40:17;;;;;;;;;3.00;3.00;;;;;14.89;46.92;98777.28;6277566;20;2752523;-46
2024/03/31 04:42:43;;;;;;;;;3.00;2.00;;;;;14.91;46.89;98783.41;6278274;20;2752493;-46
2024/03/31 04:45:10;;;;;;;;;4.00;4.00;;;;;15.00;46.75;98782.50;6281705;20;2750385;-46
2024/03/31 04:47:36;;;;;;;;;4.00;3.00;;;;;15.08;45.87;98781.78;6278409;20;2740010;-48
2024/03/31 04:50:04;;;;;;;;;5.00;2.00;;;;;15.09;45.84;98787.06;6277571;20;2746070;-46
2024/03/31 04:52:31;;;;;;;;;2.50;2.50;;;;;15.16;45.95;98784.63;6278329;20;2737795;-47
2024/03/31 04:54:57;;;;;;;;;3.00;3.00;;;;;15.06;46.31;98783.78;6279319;20;2756608;-46
2024/03/31 04:57:24;;;;;;;;;2.00;2.00;;;;;15.09;46.98;98778.13;6279124;20;2756648;-46
2024/03/31 04:59:50;;;;;;;;;4.50;1.50;;;;;14.68;47.92;98777.44;6278389;20;2745081;-48
2024/03/31 05:02:17;;;;;;;;;1.00;1.00;;;;;14.18;49.67;98783.78;6276026;20;2737854;-48
2024/03/31 05:04:44;;;;;;;;;3.00;3.00;;;;;14.19;49.69;98774.69;6277715;20;2754445;-48
2024/03/31 05:07:11;;;;;;;;;2.00;2.00;;;;;14.19;50.58;98780.09;6277239;20;2752360;-50
2024/03/31 05:09:38;;;;;;;;;2.50;2.50;;;;;13.94;51.58;98767.09;6274649;20;2756504;-49
2024/03/31 05:12:06;;;;;;;;;2.75;2.75;;;;;13.95;51.79;98771.50;6295423;20;1811479;-47
2024/03/31 05:14:32;;;;;;;;;6.00;6.00;;;;;13.88;53.16;98770.38;6306119;20;2748160;-48
2024/03/31 05:17:03;;;;;;;;;6.80;5.40;;;;;14.16;51.98;98782.19;6301799;20;2736743;-46
2024/03/31 05:19:30;;;;;;;;;5.00;3.00;;;;;14.34;51.55;98771.56;6306089;20;2740902;-46
2024/03/31 05:21:57;;;;;;;;;2.00;2.00;;;;;14.51;48.97;98770.88;6277771;20;2735711;-49
2024/03/31 05:24:23;;;;;;;;;2.00;2.00;;;;;14.53;49.99;98771.59;6275091;20;2746101;-47
2024/03/31 05:26:50;;;;;;;;;3.00;2.00;;;;;15.12;45.96;98783.22;6278351;20;2747296;-46
2024/03/31 05:29:20;;;;;;;;;5.00;3.00;;;;;15.42;44.71;98784.84;6273117;20;2757133;-47
2024/03/31 05:31:47;;;;;;;;;3.50;3.00;;;;;15.33;44.70;98775.75;6280035;20;2732670;-46
2024/03/31 05:34:13;;;;;;;;;4.00;3.50;;;;;15.38;44.58;98783.44;6276734;20;2751331;-46
2024/03/31 05:36:40;;;;;;;;;2.00;2.00;;;;;15.52;43.92;98779.41;6277294;20;2750315;-46
2024/03/31 05:39:06;;;;;;;;;2.00;2.00;;;;;15.69;43.19;98783.19;6277351;20;2750295;-46
2024/03/31 05:41:33;;;;;;;;;3.00;2.00;;;;;15.62;43.40;98773.97;6276155;20;2753382;-46
2024/03/31 05:44:00;;;;;;;;;2.00;2.00;;;;;15.73;42.83;98779.19;6277369;20;2748198;-48
2024/03/31 05:46:29;;;;;;;;;3.40;3.00;;;;;15.74;43.15;98776.31;6302720;20;2742967;-47
2024/03/31 05:48:55;;;;;;;;;2.00;2.00;;;;;15.70;42.74;98771.38;6304937;20;2754586;-46
2024/03/31 05:51:22;;;;;;;;;5.00;2.00;;;;;15.94;42.62;98779.81;6280652;20;2742142;-46
2024/03/31 05:53:48;;;;;;;;;2.00;2.00;;;;;15.62;42.71;98774.81;6278696;20;2738808;-48
2024/03/31 05:56:15;;;;;;;;;2.00;2.00;;;;;15.77;43.14;98773.34;6277059;20;2753531;-50
2024/03/31 05:58:41;;;;;;;;;6.00;3.00;;;;;15.76;44.46;98781.59;6275116;20;2750296;-48
2024/03/31 06:01:08;;;;;;;;;3.00;1.50;;;;;15.85;44.46;98774.44;6279515;20;2733630;-47
2024/03/31 06:03:34;;;;;;;;;4.00;2.00;;;;;15.95;44.59;98786.06;6275416;20;2752403;-47
2024/03/31 06:06:01;;;;;;;;;3.00;3.00;;;;;15.82;44.13;98772.88;6278745;20;2730639;-46
2024/03/31 06:08:27;;;;;;;;;5.50;3.00;;;;;15.75;44.14;98786.16;6276313;20;2741316;-46
2024/03/31 06:10:54;;;;;;;;;5.00;3.50;;;;;15.98;42.87;98786.63;6277946;20;2740027;-46
2024/03/31 06:13:20;;;;;;;;;2.00;1.00;;;;;16.16;43.86;98799.34;6278515;20;2735737;-46
2024/03/31 06:15:47;;;;;;;;;3.50;2.00;;;;;15.53;46.55;98798.19;6278359;20;2735810;-47
2024/03/31 06:18:14;;;;;;;;;4.00;3.00;;;;;15.50;49.36;98795.78;6276074;20;2748242;-48
2024/03/31 06:20:40;;;;;;;;;5.00;4.00;;;;;15.53;49.66;98792.78;6278792;20;2748348;-46
2024/03/31 06:23:08;;;;;;;;;4.00;4.00;;;;;15.45;51.84;98800.75;6300154;20;2756500;-48
2024/03/31 06:25:35;;;;;;;;;2.50;2.00;;;;;16.01;46.89;98813.41;6275689;20;2751494;-49
2024/03/31 06:28:01;;;;;;;;;2.00;2.00;;;;;15.98;44.38;98799.28;6279924;20;2739860;-46
2024/03/31 06:30:28;;;;;;;;;4.00;2.50;;;;;15.88;44.11;98807.47;6276204;20;2737005;-48
2024/03/31 06:32:54;;;;;;;;;2.00;2.00;;;;;16.01;43.57;98802.56;6277630;20;2752405;-46
2024/03/31 06:35:21;;;;;;;;;6.00;3.00;;;;;16.02;42.63;98801.56;6277150;20;2751454;-50
2024/03/31 06:37:48;;;;;;;;;4.00;3.00;;;;;16.08;42.77;98807.38;6274312;20;2756626;-46
2024/03/31 06:40:14;;;;;;;;;3.50;3.00;;;;;16.31;42.86;98813.22;6277566;20;2756670;-46
2024/03/31 06:42:41;;;;;;;;;2.00;2.00;;;;;16.34;42.63;98808.34;6284456;20;2744111;-46
2024/03/31 06:45:07;;;;;;;;;2.50;2.50;;;;;16.54;42.60;98814.50;6280115;20;2750390;-48
2024/03/31 06:47:34;;;;;;;;;4.00;3.00;;;;;16.52;42.40;98821.06;6281499;20;2755608;-46
2024/03/31 06:50:00;;;;;;;;;5.00;2.00;;;;;16.44;43.15;98819.97;6281684;20;2756536;-46
2024/03/31 06:52:27;;;;;;;;;4.00;3.00;;;;;16.90;42.39;98822.63;6282188;20;2752461;-46
2024/03/31 06:54:55;;;;;;;;;2.50;2.50;;;;;16.94;42.25;98825.91;6279712;20;2756507;-47
2024/03/31 06:57:21;;;;;;;;;8.00;3.00;;;;;17.05;42.51;98829.22;6284800;20;2749265;-47
2024/03/31 06:59:48;;;;;;;;;4.00;3.00;;;;;17.02;42.73;98823.25;6280924;20;2756510;-47
2024/03/31 07:02:14;;;;;;;;;6.00;5.00;;;;;16.87;45.21;98834.66;6279821;20;2752417;-46
2024/03/31 07:04:41;;;;;;;;;7.00;5.50;;;;;16.82;51.64;98828.84;6285270;20;2742994;-46
2024/03/31 07:07:07;;;;;;;;;9.00;7.00;;;;;15.76;54.95;98819.50;6281013;20;2736727;-48
2024/03/31 07:09:36;;;;;;;;;8.80;6.60;;;;;16.21;54.51;98824.97;6306534;20;2734720;-46
2024/03/31 07:12:05;;;;;;;;;6.80;5.60;;;;;16.29;56.49;98818.78;6337974;20;2738968;-49
2024/03/31 07:14:32;;;;;;;;;6.00;5.00;;;;;16.85;53.85;98824.97;6311577;20;2748387;-49
2024/03/31 07:17:01;;;;;;;;;9.00;6.00;;;;;16.62;50.32;98830.84;6278137;20;2744056;-48
2024/03/31 07:19:29;;;;;;;;;10.00;6.00;;;;;17.27;49.84;98819.75;6300442;20;2757573;-46
2024/03/31 07:21:56;;;;;;;;;6.50;6.50;;;;;17.83;49.93;98827.56;6280230;20;2744078;-46
2024/03/31 07:24:24;;;;;;;;;7.00;5.60;;;;;17.98;49.43;98825.94;6305298;20;2743016;-46
2024/03/31 07:26:51;;;;;;;;;9.00;5.00;;;;;17.92;50.26;98815.72;6313384;20;2748196;-45
2024/03/31 07:29:17;;;;;;;;;8.00;5.50;;;;;17.27;51.54;98806.19;6281399;20;2745063;-45
2024/03/31 07:31:45;;;;;;;;;5.00;5.00;;;;;17.75;50.29;98812.06;6307363;20;2748229;-45
2024/03/31 07:34:12;;;;;;;;;8.00;5.00;;;;;17.50;49.75;98806.47;6277507;20;2748371;-45
2024/03/31 07:36:38;;;;;;;;;5.00;5.00;;;;;17.57;51.13;98814.84;6277371;20;2746181;-46
2024/03/31 07:39:05;;;;;;;;;7.50;6.00;;;;;17.91;50.15;98814.03;6276032;20;2737942;-51
2024/03/31 07:41:33;;;;;;;;;4.20;3.80;;;;;18.42;49.81;98813.00;6297871;20;2753962;-47
2024/03/31 07:44:02;;;;;;;;;7.00;4.20;;;;;18.74;43.87;98808.66;6295109;20;2749643;-48
2024/03/31 07:46:31;;;;;;;;;3.60;3.00;;;;;17.74;46.83;98805.75;6295460;20;2752406;-45
2024/03/31 07:48:58;;;;;;;;;5.50;4.50;;;;;17.59;49.33;98815.53;6302203;20;2739967;-46
2024/03/31 07:51:24;;;;;;;;;8.50;3.00;;;;;18.27;42.94;98813.81;6274315;20;2744084;-48
2024/03/31 07:53:51;;;;;;;;;8.00;4.00;;;;;18.23;46.22;98812.47;6275547;20;2750374;-46
2024/03/31 07:56:17;;;;;;;;;6.00;4.00;;;;;17.77;46.44;98808.16;6275187;20;2748269;-50
2024/03/31 07:58:44;;;;;;;;;5.00;2.00;;;;;18.71;46.26;98802.72;6272425;20;2734907;-51
2024/03/31 08:01:11;;;;;;;;;5.00;5.00;;;;;18.45;46.16;98802.81;6275200;20;2746248;-49
2024/03/31 08:03:37;;;;;;;;;5.00;5.00;;;;;18.46;45.47;98809.94;6274323;20;2745083;-47
2024/03/31 08:06:04;;;;;;;;;3.33;3.00;;;;;19.23;42.87;98810.56;6274338;20;2750304;-45
2024/03/31 08:08:31;;;;;;;;;3.50;3.50;;;;;19.72;42.73;98811.38;6301692;20;2747170;-45
2024/03/31 08:10:58;;;;;;;;;4.67;3.67;;;;;20.56;40.53;98821.75;6274313;20;2755531;-45
2024/03/31 08:13:25;;;;;;;;;4.67;3.00;;;;;20.73;40.95;98809.72;6304531;20;2733746;-48
2024/03/31 08:15:54;;;;;;;;;6.20;3.20;;;;;21.23;35.57;98815.63;6325348;20;2753415;-48
2024/03/31 08:18:22;;;;;;;;;4.33;3.00;;;;;21.24;35.63;98803.66;6302375;20;2745203;-46
2024/03/31 08:20:49;;;;;;;;;4.67;3.00;;;;;21.22;34.92;98809.34;6303348;20;2752443;-46
2024/03/31 08:23:17;;;;;;;;;5.00;5.00;;;;;21.35;34.91;98813.28;6325507;20;2754457;-49
2024/03/31 08:25:52;;;;;;;;;3.60;3.60;;;;;22.75;31.89;98821.59;6294450;20;2740662;-48
2024/03/31 08:28:20;;;;;;;;;3.20;2.80;;;;;22.80;32.76;98827.28;6326522;20;2754448;-48
2024/03/31 08:30:48;;;;;;;;;2.00;2.00;;;;;22.67;31.71;98824.41;6283428;20;2622219;-47
2024/03/31 08:33:17;;;;;;;;;3.00;1.60;;;;;22.22;31.79;98823.66;6327662;20;2751480;-48
2024/03/31 08:35:53;;;;;;;;;5.20;3.00;;;;;22.15;31.89;98818.09;6293877;20;2738870;-46
2024/03/31 08:38:21;;;;;;;;;2.40;2.40;;;;;21.98;32.31;98825.63;6333277;20;2750284;-48
2024/03/31 08:41:05;;;;;;;;;4.00;2.40;;;;;23.04;31.65;98828.88;6304255;20;2733628;-47
2024/03/31 08:43:39;;;;;;;;;6.67;2.67;;;;;22.26;31.33;98830.47;6310999;20;2743095;-50
2024/03/31 08:46:08;;;;;;;;;5.33;3.00;;;;;22.02;32.07;98837.06;6311277;20;2744084;-49
2024/03/31 08:48:37;;;;;;;;;3.00;2.33;;;;;23.36;31.08;98840.31;6306260;20;2755518;-47
2024/03/31 08:51:06;;;;;;;;;3.60;2.40;;;;;23.66;30.53;98841.81;6333128;20;2748293;-47
2024/03/31 08:53:34;;;;;;;;;2.00;1.00;;;;;23.34;31.06;98842.41;6279973;20;2744152;-49
2024/03/31 08:56:03;;;;;;;;;4.60;1.60;;;;;23.98;30.33;98833.19;6331759;20;2743091;-48
2024/03/31 08:58:35;;;;;;;;;4.40;3.20;;;;;23.84;29.16;98832.28;6333117;20;2756592;-48
2024/03/31 09:01:04;;;;;;;;;3.40;1.40;;;;;24.10;29.05;98826.94;6302112;20;2741915;-48
2024/03/31 09:03:32;;;;;;;;;1.40;1.40;;;;;24.10;28.45;98837.06;6300589;20;2744096;-50
2024/03/31 09:06:00;;;;;;;;;7.00;6.67;;;;;24.50;27.78;98837.28;6282386;20;2742107;-54
2024/03/31 09:08:28;;;;;;;;;3.80;1.40;;;;;23.88;26.93;98839.91;6333251;20;2746236;-53
2024/03/31 09:10:56;;;;;;;;;2.20;1.80;;;;;24.18;27.12;98834.16;6330003;20;2740932;-51
2024/03/31 09:13:25;;;;;;;;;1.80;1.60;;;;;24.81;27.01;98834.00;6299553;20;2729536;-56
2024/03/31 09:15:53;;;;;;;;;5.20;3.20;;;;;24.49;27.01;98819.97;6333674;20;2737824;-57
2024/03/31 09:18:23;;;;;;;;;1.00;1.00;;;;;24.57;27.50;98810.72;6331869;20;2749238;-52
2024/03/31 09:20:51;;;;;;;;;2.00;2.00;;;;;24.88;27.05;98814.78;6302188;20;2731568;-58
2024/03/31 09:23:19;;;;;;;;;4.00;4.00;;;;;24.95;26.21;98826.66;6331569;20;2756640;-57
2024/03/31 09:25:48;;;;;;;;;2.20;1.20;;;;;25.42;26.56;98824.81;6300486;20;2737806;-56
2024/03/31 09:28:17;;;;;;;;;7.00;3.00;;;;;25.25;26.09;98823.53;6300774;20;2748299;-56
2024/03/31 09:30:44;;;;;;;;;1.33;1.33;;;;;25.05;26.95;98823.50;6275950;20;2741319;-53
2024/03/31 09:33:12;;;;;;;;;1.00;1.00;;;;;25.19;26.82;98820.56;6331713;20;2740016;-52
2024/03/31 09:35:41;;;;;;;;;3.20;1.60;;;;;25.31;26.05;98815.31;6300974;20;2754465;-50
2024/03/31 09:38:09;;;;;;;;;4.40;1.80;;;;;24.97;25.64;98808.06;6302055;20;2750442;-48
2024/03/31 09:40:40;;;;;;;;;1.80;1.00;;;;;25.01;25.67;98806.56;6301832;20;2755532;-47
2024/03/31 09:43:08;;;;;;;;;3.60;3.00;;;;;24.93;25.99;98804.88;6301079;20;2743021;-48
2024/03/31 09:45:43;;;;;;;;;1.80;1.80;;;;;25.21;25.73;98801.13;6300572;20;2756690;-55
2024/03/31 09:48:19;;;;;;;;;4.00;1.00;;;;;25.99;25.36;98804.06;6299100;20;2747218;-48
2024/03/31 09:51:28;;;;;;;;;3.80;1.00;;;;;25.23;25.35;98795.44;6301168;20;2756550;-56
2024/03/31 09:54:22;;;;;;;;;2.00;1.67;;;;;25.36;26.46;98798.19;6276571;20;2754553;-55
2024/03/31 09:57:06;;;;;;;;;4.00;1.20;;;;;25.62;27.38;98795.41;6332601;20;2744035;-54
2024/03/31 09:59:49;;;;;;;;;2.40;1.00;;;;;25.63;25.41;98788.00;6298020;20;2748194;-54
2024/03/31 10:02:18;;;;;;;;;5.80;2.40;;;;;25.45;26.25;98780.41;6303933;20;2735772;-54
2024/03/31 10:05:03;;;;;;;;;4.60;2.00;;;;;25.53;25.53;98782.09;6299821;20;2748234;-49
2024/03/31 10:07:33;;;;;;;;;1.60;0.00;;;;;25.64;24.85;98770.44;6309784;20;2728431;-48
2024/03/31 10:10:03;;;;;;;;;4.00;0.80;;;;;25.79;25.68;98778.47;6332466;20;2750277;-49
2024/03/31 10:12:32;;;;;;;;;3.67;1.67;;;;;25.64;25.62;98767.69;6278022;20;2756534;-54
2024/03/31 10:15:02;;;;;;;;;4.00;2.00;;;;;26.30;26.14;98774.09;6331854;20;2736096;-53
2024/03/31 10:17:31;;;;;;;;;1.80;1.00;;;;;26.61;24.83;98773.31;6301698;20;2736774;-54
2024/03/31 10:20:02;;;;;;;;;4.40;1.20;;;;;26.12;24.91;98764.66;6301152;20;2755481;-48
2024/03/31 10:22:30;;;;;;;;;4.00;1.00;;;;;26.48;26.22;98761.28;6277186;20;2750366;-53
2024/03/31 10:24:59;;;;;;;;;5.20;1.20;;;;;26.57;24.73;98758.31;6331503;20;2733631;-51
2024/03/31 10:27:29;;;;;;;;;5.80;1.00;;;;;25.98;25.89;98733.56;6299437;20;2750366;-50
2024/03/31 10:29:59;;;;;;;;;3.75;1.00;;;;;26.59;25.98;98742.41;6309610;20;2755496;-48
2024/03/31 10:32:27;;;;;;;;;4.20;2.20;;;;;26.41;25.76;98738.47;6303138;20;2756567;-49
2024/03/31 10:34:56;;;;;;;;;1.40;0.00;;;;;26.15;27.30;98735.84;6301508;20;2738856;-52
2024/03/31 10:37:25;;;;;;;;;3.20;2.20;;;;;26.78;25.50;98741.44;6302619;20;2756654;-52
2024/03/31 10:39:54;;;;;;;;;2.40;1.00;;;;;26.07;25.03;98745.19;6302632;20;2735728;-50
2024/03/31 10:42:24;;;;;;;;;4.80;2.40;;;;;25.98;24.84;98752.81;6332783;20;2738829;-53
2024/03/31 10:44:53;;;;;;;;;6.60;1.80;;;;;26.23;25.50;98743.84;6302166;20;2760726;-55
2024/03/31 10:47:22;;;;;;;;;8.00;3.00;;;;;25.68;24.83;98759.88;6300006;20;2745075;-55
2024/03/31 10:50:05;;;;;;;;;5.20;0.60;;;;;25.52;26.00;98748.28;6301052;20;2746142;-54
2024/03/31 10:52:38;;;;;;;;;5.80;2.80;;;;;25.46;26.94;98743.66;6301852;20;2756530;-51
2024/03/31 10:55:09;;;;;;;;;1.80;1.80;;;;;25.19;25.95;98738.16;6301491;20;2746165;-53
2024/03/31 10:57:39;;;;;;;;;0.00;0.00;;;;;25.41;26.19;98746.19;6279086;20;2733688;-53
2024/03/31 11:00:09;;;;;;;;;4.33;1.67;;;;;25.10;26.15;98733.91;6307908;20;2756001;-51
2024/03/31 11:02:40;;;;;;;;;1.00;1.00;;;;;25.05;27.46;98733.69;6335726;20;2752457;-52
2024/03/31 11:05:11;;;;;;;;;5.00;3.00;;;;;24.93;26.17;98721.63;6298941;20;2756533;-52
2024/03/31 11:07:43;;;;;;;;;3.40;1.20;;;;;25.27;25.80;98717.00;6302519;20;2755508;-53
2024/03/31 11:10:14;;;;;;;;;2.20;0.40;;;;;25.81;26.78;98721.34;6299520;20;2751385;-53
2024/03/31 11:12:44;;;;;;;;;3.40;1.80;;;;;25.96;25.65;98719.22;6298672;20;2752395;-54
2024/03/31 11:15:15;;;;;;;;;3.40;1.00;;;;;25.89;25.77;98717.53;6299322;20;2748238;-52
2024/03/31 11:17:44;;;;;;;;;5.33;0.00;;;;;26.65;25.07;98720.34;6283062;20;2754507;-51
2024/03/31 11:20:13;;;;;;;;;4.60;0.00;;;;;26.89;25.22;98724.19;6332610;20;2731625;-51